createdAt,value
2023-01-29T00:01:45.558Z,0
2023-01-29T00:07:02.890Z,0
2023-01-29T00:12:20.276Z,0
2023-01-29T00:17:42.249Z,0
2023-01-29T00:23:02.454Z,0
2023-01-29T00:28:20.355Z,0
2023-01-29T00:33:37.982Z,0
2023-01-29T00:38:55.820Z,0
2023-01-29T00:44:14.078Z,0
2023-01-29T00:49:31.832Z,0
2023-01-29T00:54:49.605Z,0
2023-01-29T01:00:07.364Z,0
2023-01-29T01:05:25.326Z,0
2023-01-29T01:10:42.815Z,0
2023-01-29T01:16:00.313Z,0
2023-01-29T01:21:17.714Z,0
2023-01-29T01:26:38.141Z,0
2023-01-29T01:31:56.045Z,0
2023-01-29T01:42:34.035Z,0
2023-01-29T01:47:51.809Z,0
2023-01-29T01:53:09.300Z,0
2023-01-29T01:58:26.869Z,0
2023-01-29T02:03:44.298Z,0
2023-01-29T02:09:01.826Z,0
2023-01-29T02:14:19.283Z,0
2023-01-29T02:19:36.693Z,0
2023-01-29T02:24:56.598Z,0
2023-01-29T02:30:14.428Z,0
2023-01-29T02:35:31.889Z,0
2023-01-29T02:40:49.415Z,0
2023-01-29T02:46:06.944Z,0
2023-01-29T02:51:24.605Z,0
2023-01-29T02:56:42.234Z,0
2023-01-29T03:01:59.784Z,0
2023-01-29T03:07:17.284Z,0
2023-01-29T03:12:34.881Z,0
2023-01-29T03:17:53.359Z,0
2023-01-29T03:23:10.823Z,0
2023-01-29T03:28:28.494Z,0
2023-01-29T03:39:06.469Z,0
2023-01-29T03:44:43.906Z,0
2023-01-29T03:50:01.892Z,0
2023-01-29T03:55:19.316Z,0
2023-01-29T16:08:37.232Z,285.8
2023-01-29T16:13:56.862Z,262.5
2023-01-29T16:19:14.132Z,168.3
2023-01-29T16:24:31.277Z,123.7
2023-01-29T16:29:55.793Z,77.1
2023-01-29T16:35:15.933Z,38.3
2023-01-29T16:40:33.933Z,0.9
2023-01-29T16:45:52.036Z,0
2023-01-29T16:51:09.655Z,0
2023-01-29T16:56:27.169Z,0
2023-01-29T17:01:44.740Z,0
2023-01-29T17:07:04.137Z,0
2023-01-29T17:12:21.900Z,0
2023-01-29T17:17:39.372Z,0
2023-01-29T17:28:16.511Z,0
2023-01-29T17:33:33.954Z,0
2023-01-29T17:38:51.499Z,0
2023-01-29T17:49:32.345Z,0
2023-01-29T17:54:50.001Z,0
2023-01-29T18:00:07.483Z,0
2023-01-29T18:05:25.531Z,0
2023-01-29T18:10:43.124Z,0
2023-01-29T18:16:03.708Z,0
2023-01-29T18:21:24.578Z,0
2023-01-29T18:26:42.547Z,0
2023-01-29T18:32:00.426Z,0
2023-01-29T18:37:18.635Z,0
2023-01-29T18:42:41.461Z,0
2023-01-29T18:48:07.022Z,0
2023-01-29T18:53:25.033Z,0
2023-01-29T18:58:42.779Z,0
2023-01-29T19:04:09.922Z,0
2023-01-29T19:09:30.346Z,0
2023-01-29T19:14:48.194Z,0
2023-01-29T19:20:05.925Z,0
2023-01-29T19:25:26.625Z,0
2023-01-29T19:30:44.374Z,0
2023-01-29T19:36:02.179Z,0
2023-01-29T19:41:20.168Z,0
2023-01-29T19:46:37.604Z,0
2023-01-29T19:51:55.050Z,0
2023-01-29T19:57:12.840Z,0
2023-01-29T20:02:30.239Z,0
2023-01-29T20:07:47.733Z,0
2023-01-29T20:13:05.814Z,0
2023-01-29T20:18:23.166Z,0
2023-01-29T20:23:40.786Z,0
2023-01-29T20:28:58.480Z,0
2023-01-29T20:34:24.812Z,0
2023-01-29T20:39:42.875Z,0
2023-01-29T20:45:00.371Z,0
2023-01-29T20:50:18.054Z,0
2023-01-29T20:55:41.295Z,0
2023-01-29T21:00:59.324Z,0
2023-01-29T21:06:21.701Z,0
2023-01-29T21:11:39.377Z,0
2023-01-29T21:16:56.780Z,0
2023-01-29T21:22:23.271Z,0
2023-01-29T21:27:41.214Z,0
2023-01-29T21:32:58.683Z,0
2023-01-29T21:38:18.770Z,0
2023-01-29T21:43:36.471Z,0
2023-01-29T21:49:03.380Z,0
2023-01-29T21:54:22.817Z,0
2023-01-29T21:59:40.498Z,0
2023-01-29T22:05:19.610Z,0
2023-01-29T22:10:37.884Z,0
2023-01-29T22:15:55.652Z,0
2023-01-29T22:21:13.497Z,0
2023-01-29T22:26:31.014Z,0
2023-01-29T22:31:48.414Z,0
2023-01-29T22:37:06.332Z,0
2023-01-29T22:42:26.590Z,0
2023-01-29T22:47:44.231Z,0
2023-01-29T22:53:02.125Z,0
2023-01-29T22:58:19.725Z,0
2023-01-29T23:03:37.388Z,0
2023-01-29T23:08:55.109Z,0
2023-01-29T23:14:12.715Z,0
2023-01-29T23:19:33.109Z,0
2023-01-29T23:24:50.758Z,0
2023-01-29T23:30:08.134Z,0
2023-01-29T23:35:25.891Z,0
2023-01-29T23:40:43.347Z,0
2023-01-29T23:46:03.489Z,0
2023-01-29T23:51:21.063Z,0
2023-01-29T23:56:40.204Z,0
